sensor_id;sensor_type;location;lat;lon;timestamp;temperature;humidity
15426;DHT22;7812;50.072;7.036;2022-12-07T00:01:11;3.40;99.90
15426;DHT22;7812;50.072;7.036;2022-12-07T00:03:38;3.40;99.90
15426;DHT22;7812;50.072;7.036;2022-12-07T00:06:06;3.20;99.90
15426;DHT22;7812;50.072;7.036;2022-12-07T00:08:32;3.20;99.90
15426;DHT22;7812;50.072;7.036;2022-12-07T00:11:16;3.30;99.90
15426;DHT22;7812;50.072;7.036;2022-12-07T00:13:43;3.40;99.90
15426;DHT22;7812;50.072;7.036;2022-12-07T00:16:16;3.40;99.90
15426;DHT22;7812;50.072;7.036;2022-12-07T00:18:43;3.50;99.90
15426;DHT22;7812;50.072;7.036;2022-12-07T00:23:36;3.50;99.90
15426;DHT22;7812;50.072;7.036;2022-12-07T00:26:07;3.60;99.90
15426;DHT22;7812;50.072;7.036;2022-12-07T00:28:33;3.60;99.90
15426;DHT22;7812;50.072;7.036;2022-12-07T00:31:04;3.60;99.90
15426;DHT22;7812;50.072;7.036;2022-12-07T00:33:30;3.70;99.90
15426;DHT22;7812;50.072;7.036;2022-12-07T00:35:57;3.80;99.90
15426;DHT22;7812;50.072;7.036;2022-12-07T00:38:23;3.80;99.90
15426;DHT22;7812;50.072;7.036;2022-12-07T00:41:00;3.60;99.90
15426;DHT22;7812;50.072;7.036;2022-12-07T00:43:26;3.50;99.90
15426;DHT22;7812;50.072;7.036;2022-12-07T00:45:53;3.60;99.90
15426;DHT22;7812;50.072;7.036;2022-12-07T00:48:19;3.50;99.90
15426;DHT22;7812;50.072;7.036;2022-12-07T00:50:45;3.40;99.90
15426;DHT22;7812;50.072;7.036;2022-12-07T00:53:11;3.30;99.90
15426;DHT22;7812;50.072;7.036;2022-12-07T00:55:37;3.30;99.90
15426;DHT22;7812;50.072;7.036;2022-12-07T00:58:03;3.40;99.90
15426;DHT22;7812;50.072;7.036;2022-12-07T01:00:29;3.50;99.90
15426;DHT22;7812;50.072;7.036;2022-12-07T01:02:55;3.30;99.90
15426;DHT22;7812;50.072;7.036;2022-12-07T01:05:21;3.40;99.90
15426;DHT22;7812;50.072;7.036;2022-12-07T01:07:46;3.20;99.90
15426;DHT22;7812;50.072;7.036;2022-12-07T01:10:13;3.30;99.90
15426;DHT22;7812;50.072;7.036;2022-12-07T01:12:39;3.50;99.90
15426;DHT22;7812;50.072;7.036;2022-12-07T01:15:05;3.30;99.90
15426;DHT22;7812;50.072;7.036;2022-12-07T01:17:31;3.30;99.90
15426;DHT22;7812;50.072;7.036;2022-12-07T01:19:57;3.30;99.90
15426;DHT22;7812;50.072;7.036;2022-12-07T01:22:22;3.40;99.90
15426;DHT22;7812;50.072;7.036;2022-12-07T01:24:48;3.00;99.90
15426;DHT22;7812;50.072;7.036;2022-12-07T01:27:14;2.80;99.90
15426;DHT22;7812;50.072;7.036;2022-12-07T01:29:40;2.80;99.90
15426;DHT22;7812;50.072;7.036;2022-12-07T01:32:05;3.00;99.90
15426;DHT22;7812;50.072;7.036;2022-12-07T01:34:31;3.10;99.90
15426;DHT22;7812;50.072;7.036;2022-12-07T01:36:57;3.30;99.90
15426;DHT22;7812;50.072;7.036;2022-12-07T01:39:23;3.40;99.90
15426;DHT22;7812;50.072;7.036;2022-12-07T01:41:49;3.50;99.90
15426;DHT22;7812;50.072;7.036;2022-12-07T01:44:26;3.60;99.90
15426;DHT22;7812;50.072;7.036;2022-12-07T01:46:53;3.50;99.90
15426;DHT22;7812;50.072;7.036;2022-12-07T01:49:31;3.50;99.90
15426;DHT22;7812;50.072;7.036;2022-12-07T01:54:43;3.60;99.90
15426;DHT22;7812;50.072;7.036;2022-12-07T01:57:09;3.50;99.90
15426;DHT22;7812;50.072;7.036;2022-12-07T01:59:36;3.30;99.90
15426;DHT22;7812;50.072;7.036;2022-12-07T02:02:04;3.30;99.90
15426;DHT22;7812;50.072;7.036;2022-12-07T02:04:32;3.40;99.90
15426;DHT22;7812;50.072;7.036;2022-12-07T02:06:57;3.40;99.90
15426;DHT22;7812;50.072;7.036;2022-12-07T02:09:23;3.40;99.90
15426;DHT22;7812;50.072;7.036;2022-12-07T02:11:49;3.40;99.90
15426;DHT22;7812;50.072;7.036;2022-12-07T02:14:15;3.50;99.90
15426;DHT22;7812;50.072;7.036;2022-12-07T02:22:01;3.50;99.90
15426;DHT22;7812;50.072;7.036;2022-12-07T02:24:48;3.40;99.90
15426;DHT22;7812;50.072;7.036;2022-12-07T02:27:45;3.50;99.90
15426;DHT22;7812;50.072;7.036;2022-12-07T02:30:19;3.60;99.90
15426;DHT22;7812;50.072;7.036;2022-12-07T02:35:30;3.30;99.90
15426;DHT22;7812;50.072;7.036;2022-12-07T02:37:59;3.30;99.90
15426;DHT22;7812;50.072;7.036;2022-12-07T02:40:41;3.50;99.90
15426;DHT22;7812;50.072;7.036;2022-12-07T02:43:57;3.60;99.90
15426;DHT22;7812;50.072;7.036;2022-12-07T02:46:08;3.70;99.90
15426;DHT22;7812;50.072;7.036;2022-12-07T02:48:36;3.70;99.90
15426;DHT22;7812;50.072;7.036;2022-12-07T02:51:02;3.70;99.90
15426;DHT22;7812;50.072;7.036;2022-12-07T02:53:36;3.70;99.90
15426;DHT22;7812;50.072;7.036;2022-12-07T03:13:24;3.40;99.90
15426;DHT22;7812;50.072;7.036;2022-12-07T03:21:16;3.70;99.90
15426;DHT22;7812;50.072;7.036;2022-12-07T03:23:45;3.70;99.90
15426;DHT22;7812;50.072;7.036;2022-12-07T03:26:13;3.80;99.90
15426;DHT22;7812;50.072;7.036;2022-12-07T03:28:44;3.90;99.90
15426;DHT22;7812;50.072;7.036;2022-12-07T03:34:13;4.00;99.90
15426;DHT22;7812;50.072;7.036;2022-12-07T03:37:00;4.10;99.90
15426;DHT22;7812;50.072;7.036;2022-12-07T03:41:58;4.20;99.90
15426;DHT22;7812;50.072;7.036;2022-12-07T03:44:25;4.20;99.90
15426;DHT22;7812;50.072;7.036;2022-12-07T03:49:55;4.10;99.90
15426;DHT22;7812;50.072;7.036;2022-12-07T03:52:56;4.00;99.90
15426;DHT22;7812;50.072;7.036;2022-12-07T03:55:30;4.00;99.90
15426;DHT22;7812;50.072;7.036;2022-12-07T03:58:02;4.10;99.90
15426;DHT22;7812;50.072;7.036;2022-12-07T04:00:29;4.10;99.90
15426;DHT22;7812;50.072;7.036;2022-12-07T04:02:55;4.00;99.90
15426;DHT22;7812;50.072;7.036;2022-12-07T04:05:21;4.00;99.90
15426;DHT22;7812;50.072;7.036;2022-12-07T04:07:47;4.00;99.90
15426;DHT22;7812;50.072;7.036;2022-12-07T04:10:13;4.10;99.90
15426;DHT22;7812;50.072;7.036;2022-12-07T04:12:39;3.70;99.90
15426;DHT22;7812;50.072;7.036;2022-12-07T04:15:05;3.60;99.90
15426;DHT22;7812;50.072;7.036;2022-12-07T04:17:31;3.60;99.90
15426;DHT22;7812;50.072;7.036;2022-12-07T04:19:56;3.60;99.90
15426;DHT22;7812;50.072;7.036;2022-12-07T04:22:22;3.70;99.90
15426;DHT22;7812;50.072;7.036;2022-12-07T04:24:48;3.50;99.90
15426;DHT22;7812;50.072;7.036;2022-12-07T04:27:14;3.50;99.90
15426;DHT22;7812;50.072;7.036;2022-12-07T04:29:39;3.40;99.90
15426;DHT22;7812;50.072;7.036;2022-12-07T04:32:05;3.40;99.90
15426;DHT22;7812;50.072;7.036;2022-12-07T04:34:31;3.50;99.90
15426;DHT22;7812;50.072;7.036;2022-12-07T04:36:57;3.40;99.90
15426;DHT22;7812;50.072;7.036;2022-12-07T04:39:29;3.50;99.90
15426;DHT22;7812;50.072;7.036;2022-12-07T04:41:56;3.60;99.90
15426;DHT22;7812;50.072;7.036;2022-12-07T04:44:23;3.40;99.90
15426;DHT22;7812;50.072;7.036;2022-12-07T04:46:49;3.30;99.90
15426;DHT22;7812;50.072;7.036;2022-12-07T04:49:15;3.40;99.90
15426;DHT22;7812;50.072;7.036;2022-12-07T04:51:41;3.50;99.90
15426;DHT22;7812;50.072;7.036;2022-12-07T04:54:07;3.80;99.90
15426;DHT22;7812;50.072;7.036;2022-12-07T04:56:33;3.80;99.90
15426;DHT22;7812;50.072;7.036;2022-12-07T04:59:00;3.90;99.90
15426;DHT22;7812;50.072;7.036;2022-12-07T05:01:26;4.00;99.90
15426;DHT22;7812;50.072;7.036;2022-12-07T05:03:52;4.00;99.90
15426;DHT22;7812;50.072;7.036;2022-12-07T05:06:18;3.90;99.90
15426;DHT22;7812;50.072;7.036;2022-12-07T05:08:44;4.00;99.90
15426;DHT22;7812;50.072;7.036;2022-12-07T05:11:10;3.90;99.90
15426;DHT22;7812;50.072;7.036;2022-12-07T05:14:00;3.90;99.90
15426;DHT22;7812;50.072;7.036;2022-12-07T05:16:25;3.90;99.90
15426;DHT22;7812;50.072;7.036;2022-12-07T05:18:51;4.10;99.90
15426;DHT22;7812;50.072;7.036;2022-12-07T05:21:17;4.10;99.90
15426;DHT22;7812;50.072;7.036;2022-12-07T05:23:43;4.10;99.90
15426;DHT22;7812;50.072;7.036;2022-12-07T05:26:09;3.80;99.90
15426;DHT22;7812;50.072;7.036;2022-12-07T05:28:34;3.50;99.90
15426;DHT22;7812;50.072;7.036;2022-12-07T05:31:00;3.50;99.90
15426;DHT22;7812;50.072;7.036;2022-12-07T05:33:26;3.60;99.90
15426;DHT22;7812;50.072;7.036;2022-12-07T05:35:51;3.60;99.90
15426;DHT22;7812;50.072;7.036;2022-12-07T05:38:17;3.50;99.90
15426;DHT22;7812;50.072;7.036;2022-12-07T05:40:43;3.50;99.90
15426;DHT22;7812;50.072;7.036;2022-12-07T05:43:09;3.50;99.90
15426;DHT22;7812;50.072;7.036;2022-12-07T05:45:34;3.40;99.90
15426;DHT22;7812;50.072;7.036;2022-12-07T05:48:00;3.50;99.90
15426;DHT22;7812;50.072;7.036;2022-12-07T05:50:25;3.40;99.90
15426;DHT22;7812;50.072;7.036;2022-12-07T05:52:51;3.40;99.90
15426;DHT22;7812;50.072;7.036;2022-12-07T05:55:17;3.20;99.90
15426;DHT22;7812;50.072;7.036;2022-12-07T05:57:43;3.20;99.90
15426;DHT22;7812;50.072;7.036;2022-12-07T06:00:28;3.30;99.90
15426;DHT22;7812;50.072;7.036;2022-12-07T06:02:54;3.40;99.90
15426;DHT22;7812;50.072;7.036;2022-12-07T06:05:20;3.40;99.90
15426;DHT22;7812;50.072;7.036;2022-12-07T06:07:45;3.40;99.90
15426;DHT22;7812;50.072;7.036;2022-12-07T06:10:11;3.30;99.90
15426;DHT22;7812;50.072;7.036;2022-12-07T06:12:42;3.40;99.90
15426;DHT22;7812;50.072;7.036;2022-12-07T06:15:09;3.40;99.90
15426;DHT22;7812;50.072;7.036;2022-12-07T06:17:36;3.30;99.90
15426;DHT22;7812;50.072;7.036;2022-12-07T06:20:03;3.20;99.90
15426;DHT22;7812;50.072;7.036;2022-12-07T06:22:28;3.10;99.90
15426;DHT22;7812;50.072;7.036;2022-12-07T06:24:54;3.00;99.90
15426;DHT22;7812;50.072;7.036;2022-12-07T06:27:20;2.80;99.90
15426;DHT22;7812;50.072;7.036;2022-12-07T06:29:45;2.60;99.90
15426;DHT22;7812;50.072;7.036;2022-12-07T06:32:11;2.60;99.90
15426;DHT22;7812;50.072;7.036;2022-12-07T06:34:37;2.70;99.90
15426;DHT22;7812;50.072;7.036;2022-12-07T06:37:04;2.70;99.90
15426;DHT22;7812;50.072;7.036;2022-12-07T06:39:29;2.60;99.90
15426;DHT22;7812;50.072;7.036;2022-12-07T06:41:56;2.60;99.90
15426;DHT22;7812;50.072;7.036;2022-12-07T06:44:22;2.30;99.90
15426;DHT22;7812;50.072;7.036;2022-12-07T06:46:49;2.20;99.90
15426;DHT22;7812;50.072;7.036;2022-12-07T06:49:15;2.30;99.90
15426;DHT22;7812;50.072;7.036;2022-12-07T06:51:40;2.50;99.90
15426;DHT22;7812;50.072;7.036;2022-12-07T06:54:08;2.50;99.90
15426;DHT22;7812;50.072;7.036;2022-12-07T06:56:34;2.40;99.90
15426;DHT22;7812;50.072;7.036;2022-12-07T06:59:00;2.30;99.90
15426;DHT22;7812;50.072;7.036;2022-12-07T07:01:25;2.40;99.90
15426;DHT22;7812;50.072;7.036;2022-12-07T07:03:51;2.40;99.90
15426;DHT22;7812;50.072;7.036;2022-12-07T07:06:17;2.40;99.90
15426;DHT22;7812;50.072;7.036;2022-12-07T07:08:43;2.20;99.90
15426;DHT22;7812;50.072;7.036;2022-12-07T07:11:09;2.20;99.90
15426;DHT22;7812;50.072;7.036;2022-12-07T07:13:35;2.10;99.90
15426;DHT22;7812;50.072;7.036;2022-12-07T07:16:01;2.10;99.90
15426;DHT22;7812;50.072;7.036;2022-12-07T07:18:27;2.10;99.90
15426;DHT22;7812;50.072;7.036;2022-12-07T07:20:54;2.20;99.90
15426;DHT22;7812;50.072;7.036;2022-12-07T07:23:21;2.20;99.90
15426;DHT22;7812;50.072;7.036;2022-12-07T07:25:47;2.10;99.90
15426;DHT22;7812;50.072;7.036;2022-12-07T07:28:13;2.10;99.90
15426;DHT22;7812;50.072;7.036;2022-12-07T07:30:38;2.10;99.90
15426;DHT22;7812;50.072;7.036;2022-12-07T07:33:05;2.10;99.90
15426;DHT22;7812;50.072;7.036;2022-12-07T07:35:32;2.10;99.90
15426;DHT22;7812;50.072;7.036;2022-12-07T07:37:58;2.10;99.90
15426;DHT22;7812;50.072;7.036;2022-12-07T07:40:24;2.10;99.90
15426;DHT22;7812;50.072;7.036;2022-12-07T07:42:51;2.20;99.90
15426;DHT22;7812;50.072;7.036;2022-12-07T07:45:18;2.20;99.90
15426;DHT22;7812;50.072;7.036;2022-12-07T07:47:44;2.20;99.90
15426;DHT22;7812;50.072;7.036;2022-12-07T07:50:10;2.20;99.90
15426;DHT22;7812;50.072;7.036;2022-12-07T07:52:36;2.40;99.90
15426;DHT22;7812;50.072;7.036;2022-12-07T07:55:02;2.50;99.90
15426;DHT22;7812;50.072;7.036;2022-12-07T07:57:28;2.30;99.90
15426;DHT22;7812;50.072;7.036;2022-12-07T07:59:53;2.10;99.90
15426;DHT22;7812;50.072;7.036;2022-12-07T08:02:20;2.10;99.90
15426;DHT22;7812;50.072;7.036;2022-12-07T08:04:46;2.20;99.90
15426;DHT22;7812;50.072;7.036;2022-12-07T08:07:13;2.20;99.90
15426;DHT22;7812;50.072;7.036;2022-12-07T08:09:39;2.20;99.90
15426;DHT22;7812;50.072;7.036;2022-12-07T08:12:05;2.10;99.90
15426;DHT22;7812;50.072;7.036;2022-12-07T08:14:32;2.10;99.90
15426;DHT22;7812;50.072;7.036;2022-12-07T08:16:58;2.10;99.90
15426;DHT22;7812;50.072;7.036;2022-12-07T08:19:35;2.20;99.90
15426;DHT22;7812;50.072;7.036;2022-12-07T08:22:02;2.20;99.90
15426;DHT22;7812;50.072;7.036;2022-12-07T08:24:27;2.10;99.90
15426;DHT22;7812;50.072;7.036;2022-12-07T08:26:53;2.20;99.90
15426;DHT22;7812;50.072;7.036;2022-12-07T08:29:19;2.40;99.90
15426;DHT22;7812;50.072;7.036;2022-12-07T08:31:46;2.60;99.90
15426;DHT22;7812;50.072;7.036;2022-12-07T08:34:12;2.70;99.90
15426;DHT22;7812;50.072;7.036;2022-12-07T08:36:38;2.80;99.90
15426;DHT22;7812;50.072;7.036;2022-12-07T08:39:04;2.90;99.90
15426;DHT22;7812;50.072;7.036;2022-12-07T08:41:30;3.00;99.90
15426;DHT22;7812;50.072;7.036;2022-12-07T08:43:56;3.30;99.90
15426;DHT22;7812;50.072;7.036;2022-12-07T08:46:31;3.50;99.90
15426;DHT22;7812;50.072;7.036;2022-12-07T08:49:13;3.60;99.90
15426;DHT22;7812;50.072;7.036;2022-12-07T08:51:40;3.50;99.90
15426;DHT22;7812;50.072;7.036;2022-12-07T08:54:09;3.40;99.90
15426;DHT22;7812;50.072;7.036;2022-12-07T08:56:36;3.50;99.90
15426;DHT22;7812;50.072;7.036;2022-12-07T08:59:03;3.70;99.90
15426;DHT22;7812;50.072;7.036;2022-12-07T09:01:29;3.80;99.90
15426;DHT22;7812;50.072;7.036;2022-12-07T09:03:55;3.60;99.90
15426;DHT22;7812;50.072;7.036;2022-12-07T09:06:21;3.60;99.90
15426;DHT22;7812;50.072;7.036;2022-12-07T09:08:51;3.70;99.90
15426;DHT22;7812;50.072;7.036;2022-12-07T09:11:19;4.00;99.90
15426;DHT22;7812;50.072;7.036;2022-12-07T09:13:44;4.10;99.90
15426;DHT22;7812;50.072;7.036;2022-12-07T09:16:10;4.30;99.90
15426;DHT22;7812;50.072;7.036;2022-12-07T09:18:36;4.40;99.90
15426;DHT22;7812;50.072;7.036;2022-12-07T09:21:02;4.60;99.90
15426;DHT22;7812;50.072;7.036;2022-12-07T09:23:27;4.20;99.90
15426;DHT22;7812;50.072;7.036;2022-12-07T09:25:53;4.60;99.90
15426;DHT22;7812;50.072;7.036;2022-12-07T09:28:19;4.90;99.90
15426;DHT22;7812;50.072;7.036;2022-12-07T09:30:48;5.00;99.90
15426;DHT22;7812;50.072;7.036;2022-12-07T09:33:14;5.10;99.90
15426;DHT22;7812;50.072;7.036;2022-12-07T09:35:47;5.10;99.90
15426;DHT22;7812;50.072;7.036;2022-12-07T09:38:13;5.20;99.90
15426;DHT22;7812;50.072;7.036;2022-12-07T09:40:39;5.70;99.90
15426;DHT22;7812;50.072;7.036;2022-12-07T09:43:13;5.90;99.90
15426;DHT22;7812;50.072;7.036;2022-12-07T09:45:40;4.50;99.90
15426;DHT22;7812;50.072;7.036;2022-12-07T09:48:18;4.60;99.90
15426;DHT22;7812;50.072;7.036;2022-12-07T09:50:46;5.50;99.90
15426;DHT22;7812;50.072;7.036;2022-12-07T09:53:28;6.90;99.90
15426;DHT22;7812;50.072;7.036;2022-12-07T09:55:55;7.80;99.90
15426;DHT22;7812;50.072;7.036;2022-12-07T09:58:24;7.90;99.90
15426;DHT22;7812;50.072;7.036;2022-12-07T10:03:32;7.30;99.90
15426;DHT22;7812;50.072;7.036;2022-12-07T10:05:58;6.90;99.90
15426;DHT22;7812;50.072;7.036;2022-12-07T10:08:24;6.50;99.90
15426;DHT22;7812;50.072;7.036;2022-12-07T10:10:55;6.20;99.90
15426;DHT22;7812;50.072;7.036;2022-12-07T10:13:46;5.80;99.90
15426;DHT22;7812;50.072;7.036;2022-12-07T10:16:38;5.20;99.90
15426;DHT22;7812;50.072;7.036;2022-12-07T10:19:21;5.00;99.90
15426;DHT22;7812;50.072;7.036;2022-12-07T10:24:37;4.70;99.90
15426;DHT22;7812;50.072;7.036;2022-12-07T10:27:05;4.70;99.90
15426;DHT22;7812;50.072;7.036;2022-12-07T10:29:38;4.80;99.90
15426;DHT22;7812;50.072;7.036;2022-12-07T10:32:24;4.90;99.90
15426;DHT22;7812;50.072;7.036;2022-12-07T10:35:21;5.10;99.90
15426;DHT22;7812;50.072;7.036;2022-12-07T10:37:48;5.10;99.90
15426;DHT22;7812;50.072;7.036;2022-12-07T10:48:40;8.50;99.90
15426;DHT22;7812;50.072;7.036;2022-12-07T10:51:51;9.40;99.90
15426;DHT22;7812;50.072;7.036;2022-12-07T10:54:27;9.50;99.90
15426;DHT22;7812;50.072;7.036;2022-12-07T10:57:01;9.70;99.90
15426;DHT22;7812;50.072;7.036;2022-12-07T11:12:49;8.70;99.90
15426;DHT22;7812;50.072;7.036;2022-12-07T11:24:20;7.80;99.90
15426;DHT22;7812;50.072;7.036;2022-12-07T11:38:16;8.70;99.90
15426;DHT22;7812;50.072;7.036;2022-12-07T11:40:55;8.70;99.90
15426;DHT22;7812;50.072;7.036;2022-12-07T11:43:50;8.90;99.90
15426;DHT22;7812;50.072;7.036;2022-12-07T11:46:17;9.00;99.90
15426;DHT22;7812;50.072;7.036;2022-12-07T11:49:07;9.00;99.90
15426;DHT22;7812;50.072;7.036;2022-12-07T11:51:37;8.50;99.90
15426;DHT22;7812;50.072;7.036;2022-12-07T11:54:14;8.10;99.90
15426;DHT22;7812;50.072;7.036;2022-12-07T11:56:42;8.00;99.90
15426;DHT22;7812;50.072;7.036;2022-12-07T11:59:17;8.00;99.90
15426;DHT22;7812;50.072;7.036;2022-12-07T12:01:53;7.40;99.90
15426;DHT22;7812;50.072;7.036;2022-12-07T12:06:53;6.90;99.90
15426;DHT22;7812;50.072;7.036;2022-12-07T12:09:34;6.60;99.90
15426;DHT22;7812;50.072;7.036;2022-12-07T12:18:21;6.60;99.90
15426;DHT22;7812;50.072;7.036;2022-12-07T12:20:57;6.70;99.90
15426;DHT22;7812;50.072;7.036;2022-12-07T12:23:35;7.50;99.90
15426;DHT22;7812;50.072;7.036;2022-12-07T12:26:03;8.80;99.90
15426;DHT22;7812;50.072;7.036;2022-12-07T12:29:03;10.20;99.90
15426;DHT22;7812;50.072;7.036;2022-12-07T12:31:41;11.20;99.90
15426;DHT22;7812;50.072;7.036;2022-12-07T12:34:31;11.40;99.90
15426;DHT22;7812;50.072;7.036;2022-12-07T12:36:57;11.60;99.90
15426;DHT22;7812;50.072;7.036;2022-12-07T12:39:23;11.50;99.90
15426;DHT22;7812;50.072;7.036;2022-12-07T12:41:56;10.10;99.90
15426;DHT22;7812;50.072;7.036;2022-12-07T12:46:53;7.90;99.90
15426;DHT22;7812;50.072;7.036;2022-12-07T12:51:46;7.20;99.90
15426;DHT22;7812;50.072;7.036;2022-12-07T13:15:44;6.50;99.90
15426;DHT22;7812;50.072;7.036;2022-12-07T13:21:01;6.80;99.90
15426;DHT22;7812;50.072;7.036;2022-12-07T13:26:23;6.60;99.90
15426;DHT22;7812;50.072;7.036;2022-12-07T13:28:52;6.60;99.90
15426;DHT22;7812;50.072;7.036;2022-12-07T13:33:59;6.70;99.90
15426;DHT22;7812;50.072;7.036;2022-12-07T13:36:27;6.50;99.90
15426;DHT22;7812;50.072;7.036;2022-12-07T13:38:58;6.50;99.90
15426;DHT22;7812;50.072;7.036;2022-12-07T13:41:27;6.40;99.90
15426;DHT22;7812;50.072;7.036;2022-12-07T13:46:32;6.50;99.90
15426;DHT22;7812;50.072;7.036;2022-12-07T13:49:00;6.50;99.90
15426;DHT22;7812;50.072;7.036;2022-12-07T13:51:27;6.30;99.90
15426;DHT22;7812;50.072;7.036;2022-12-07T13:54:01;6.30;99.90
15426;DHT22;7812;50.072;7.036;2022-12-07T13:56:34;6.20;99.90
15426;DHT22;7812;50.072;7.036;2022-12-07T13:59:01;6.10;99.90
15426;DHT22;7812;50.072;7.036;2022-12-07T14:01:27;6.10;99.90
15426;DHT22;7812;50.072;7.036;2022-12-07T14:03:53;6.20;99.90
15426;DHT22;7812;50.072;7.036;2022-12-07T14:06:23;6.10;99.90
15426;DHT22;7812;50.072;7.036;2022-12-07T14:09:18;6.10;99.90
15426;DHT22;7812;50.072;7.036;2022-12-07T14:11:45;6.00;99.90
15426;DHT22;7812;50.072;7.036;2022-12-07T14:14:29;5.90;99.90
15426;DHT22;7812;50.072;7.036;2022-12-07T14:17:20;5.90;99.90
15426;DHT22;7812;50.072;7.036;2022-12-07T14:19:58;5.90;99.90
15426;DHT22;7812;50.072;7.036;2022-12-07T14:22:36;5.80;99.90
15426;DHT22;7812;50.072;7.036;2022-12-07T14:25:21;5.60;99.90
15426;DHT22;7812;50.072;7.036;2022-12-07T14:28:09;5.60;99.90
15426;DHT22;7812;50.072;7.036;2022-12-07T14:30:35;5.50;99.90
15426;DHT22;7812;50.072;7.036;2022-12-07T14:33:03;5.40;99.90
15426;DHT22;7812;50.072;7.036;2022-12-07T14:35:30;5.40;99.90
15426;DHT22;7812;50.072;7.036;2022-12-07T14:37:56;5.30;99.90
15426;DHT22;7812;50.072;7.036;2022-12-07T14:40:27;5.30;99.90
15426;DHT22;7812;50.072;7.036;2022-12-07T14:42:57;5.30;99.90
15426;DHT22;7812;50.072;7.036;2022-12-07T14:45:25;5.20;99.90
15426;DHT22;7812;50.072;7.036;2022-12-07T14:47:51;5.10;99.90
15426;DHT22;7812;50.072;7.036;2022-12-07T14:50:18;5.00;99.90
15426;DHT22;7812;50.072;7.036;2022-12-07T14:52:58;5.00;99.90
15426;DHT22;7812;50.072;7.036;2022-12-07T14:55:27;4.90;99.90
15426;DHT22;7812;50.072;7.036;2022-12-07T14:57:53;4.80;99.90
15426;DHT22;7812;50.072;7.036;2022-12-07T15:00:21;4.70;99.90
15426;DHT22;7812;50.072;7.036;2022-12-07T15:02:48;4.60;99.90
15426;DHT22;7812;50.072;7.036;2022-12-07T15:05:14;4.50;99.90
15426;DHT22;7812;50.072;7.036;2022-12-07T15:07:40;4.40;99.90
15426;DHT22;7812;50.072;7.036;2022-12-07T15:10:09;4.30;99.90
15426;DHT22;7812;50.072;7.036;2022-12-07T15:12:38;4.30;99.90
15426;DHT22;7812;50.072;7.036;2022-12-07T15:15:04;4.20;99.90
15426;DHT22;7812;50.072;7.036;2022-12-07T15:17:30;4.00;99.90
15426;DHT22;7812;50.072;7.036;2022-12-07T15:19:56;3.70;99.90
15426;DHT22;7812;50.072;7.036;2022-12-07T15:22:22;3.80;99.90
15426;DHT22;7812;50.072;7.036;2022-12-07T15:24:47;3.80;99.90
15426;DHT22;7812;50.072;7.036;2022-12-07T15:27:13;3.90;99.90
15426;DHT22;7812;50.072;7.036;2022-12-07T15:29:39;3.90;99.90
15426;DHT22;7812;50.072;7.036;2022-12-07T15:32:04;3.90;99.90
15426;DHT22;7812;50.072;7.036;2022-12-07T15:34:30;3.90;99.90
15426;DHT22;7812;50.072;7.036;2022-12-07T15:36:57;3.90;99.90
15426;DHT22;7812;50.072;7.036;2022-12-07T15:39:23;3.90;99.90
15426;DHT22;7812;50.072;7.036;2022-12-07T15:41:48;3.70;99.90
15426;DHT22;7812;50.072;7.036;2022-12-07T15:44:15;3.60;99.90
15426;DHT22;7812;50.072;7.036;2022-12-07T15:46:59;3.60;99.90
15426;DHT22;7812;50.072;7.036;2022-12-07T15:49:26;3.70;99.90
15426;DHT22;7812;50.072;7.036;2022-12-07T15:51:51;3.70;99.90
15426;DHT22;7812;50.072;7.036;2022-12-07T15:54:27;3.70;99.90
15426;DHT22;7812;50.072;7.036;2022-12-07T15:56:54;3.70;99.90
15426;DHT22;7812;50.072;7.036;2022-12-07T15:59:20;3.80;99.90
15426;DHT22;7812;50.072;7.036;2022-12-07T16:01:45;3.70;99.90
15426;DHT22;7812;50.072;7.036;2022-12-07T16:04:11;3.70;99.90
15426;DHT22;7812;50.072;7.036;2022-12-07T16:06:37;3.60;99.90
15426;DHT22;7812;50.072;7.036;2022-12-07T16:09:04;3.50;99.90
15426;DHT22;7812;50.072;7.036;2022-12-07T16:11:30;3.60;99.90
15426;DHT22;7812;50.072;7.036;2022-12-07T16:13:56;3.80;99.90
15426;DHT22;7812;50.072;7.036;2022-12-07T16:16:21;3.80;99.90
15426;DHT22;7812;50.072;7.036;2022-12-07T16:18:48;3.80;99.90
15426;DHT22;7812;50.072;7.036;2022-12-07T16:21:15;3.80;99.90
15426;DHT22;7812;50.072;7.036;2022-12-07T16:23:41;3.80;99.90
15426;DHT22;7812;50.072;7.036;2022-12-07T16:26:18;3.70;99.90
15426;DHT22;7812;50.072;7.036;2022-12-07T16:28:44;3.40;99.90
15426;DHT22;7812;50.072;7.036;2022-12-07T16:31:13;3.30;99.90
15426;DHT22;7812;50.072;7.036;2022-12-07T16:33:40;3.50;99.90
15426;DHT22;7812;50.072;7.036;2022-12-07T16:36:08;3.60;99.90
15426;DHT22;7812;50.072;7.036;2022-12-07T16:38:35;3.70;99.90
15426;DHT22;7812;50.072;7.036;2022-12-07T16:41:01;3.80;99.90
15426;DHT22;7812;50.072;7.036;2022-12-07T16:43:26;3.70;99.90
15426;DHT22;7812;50.072;7.036;2022-12-07T16:45:52;3.50;99.90
15426;DHT22;7812;50.072;7.036;2022-12-07T16:48:18;3.50;99.90
15426;DHT22;7812;50.072;7.036;2022-12-07T16:50:44;3.60;99.90
15426;DHT22;7812;50.072;7.036;2022-12-07T16:53:11;3.60;99.90
15426;DHT22;7812;50.072;7.036;2022-12-07T16:55:38;3.60;99.90
15426;DHT22;7812;50.072;7.036;2022-12-07T16:58:04;3.60;99.90
15426;DHT22;7812;50.072;7.036;2022-12-07T17:00:30;3.60;99.90
15426;DHT22;7812;50.072;7.036;2022-12-07T17:02:55;3.60;99.90
15426;DHT22;7812;50.072;7.036;2022-12-07T17:05:21;3.30;99.90
15426;DHT22;7812;50.072;7.036;2022-12-07T17:07:47;3.50;99.90
15426;DHT22;7812;50.072;7.036;2022-12-07T17:10:12;3.60;99.90
15426;DHT22;7812;50.072;7.036;2022-12-07T17:12:38;3.70;99.90
15426;DHT22;7812;50.072;7.036;2022-12-07T17:15:07;3.70;99.90
15426;DHT22;7812;50.072;7.036;2022-12-07T17:17:50;3.70;99.90
15426;DHT22;7812;50.072;7.036;2022-12-07T17:20:17;3.60;99.90
15426;DHT22;7812;50.072;7.036;2022-12-07T17:22:43;3.80;99.90
15426;DHT22;7812;50.072;7.036;2022-12-07T17:25:09;3.70;99.90
15426;DHT22;7812;50.072;7.036;2022-12-07T17:27:35;3.70;99.90
15426;DHT22;7812;50.072;7.036;2022-12-07T17:30:02;3.50;99.90
15426;DHT22;7812;50.072;7.036;2022-12-07T17:32:28;3.40;99.90
15426;DHT22;7812;50.072;7.036;2022-12-07T17:34:53;3.40;99.90
15426;DHT22;7812;50.072;7.036;2022-12-07T17:37:19;3.50;99.90
15426;DHT22;7812;50.072;7.036;2022-12-07T17:39:44;3.50;99.90
15426;DHT22;7812;50.072;7.036;2022-12-07T17:42:10;3.50;99.90
15426;DHT22;7812;50.072;7.036;2022-12-07T17:44:54;3.40;99.90
15426;DHT22;7812;50.072;7.036;2022-12-07T17:47:20;3.40;99.90
15426;DHT22;7812;50.072;7.036;2022-12-07T17:49:46;3.50;99.90
15426;DHT22;7812;50.072;7.036;2022-12-07T17:52:13;3.60;99.90
15426;DHT22;7812;50.072;7.036;2022-12-07T17:54:57;3.70;99.90
15426;DHT22;7812;50.072;7.036;2022-12-07T17:57:23;3.80;99.90
15426;DHT22;7812;50.072;7.036;2022-12-07T17:59:49;3.90;99.90
15426;DHT22;7812;50.072;7.036;2022-12-07T18:02:17;3.90;99.90
15426;DHT22;7812;50.072;7.036;2022-12-07T18:04:43;3.90;99.90
15426;DHT22;7812;50.072;7.036;2022-12-07T18:07:09;4.00;99.90
15426;DHT22;7812;50.072;7.036;2022-12-07T18:09:35;3.90;99.90
15426;DHT22;7812;50.072;7.036;2022-12-07T18:12:01;3.90;99.90
15426;DHT22;7812;50.072;7.036;2022-12-07T18:14:27;3.80;99.90
15426;DHT22;7812;50.072;7.036;2022-12-07T18:16:55;3.90;99.90
15426;DHT22;7812;50.072;7.036;2022-12-07T18:19:21;4.10;99.90
15426;DHT22;7812;50.072;7.036;2022-12-07T18:21:47;4.00;99.90
15426;DHT22;7812;50.072;7.036;2022-12-07T18:24:14;4.00;99.90
15426;DHT22;7812;50.072;7.036;2022-12-07T18:26:41;4.00;99.90
15426;DHT22;7812;50.072;7.036;2022-12-07T18:29:09;4.00;99.90
15426;DHT22;7812;50.072;7.036;2022-12-07T18:31:37;3.80;99.90